| time (UTC) | temp F | wind direction | speed knots | gust knots | rain 1hr in | rain 24hr in | rain mn in | humidity % | barometer mb |
| 20260508023042 | 47 | 0 | 0.0 | 2.6 | 0.01 | 1.08 | 1.08 | 94 | 1001.3 |
| 20260508021542 | 46 | 0 | 0.0 | 2.6 | 0.02 | 1.08 | 1.08 | 94 | 1001.2 |
| 20260508020044 | 46 | 0 | 0.0 | 0.0 | 0.02 | 1.07 | 1.07 | 94 | 1001.3 |
| 20260508014541 | 46 | 0 | 0.0 | 0.0 | 0.02 | 1.07 | 1.07 | 94 | 1001.2 |
| 20260508013046 | 47 | 0 | 0.0 | 0.0 | 0.03 | 1.07 | 1.07 | 94 | 1001.0 |
| 20260508011548 | 48 | 0 | 0.0 | 0.9 | 0.03 | 1.06 | 1.06 | 94 | 1000.9 |
| 20260508010042 | 49 | 0 | 0.0 | 2.6 | 0.03 | 1.05 | 1.05 | 94 | 1001.1 |
| 20260508004548 | 49 | 0 | 0.0 | 2.6 | 0.03 | 1.04 | 1.04 | 94 | 1001.1 |
| 20260508003043 | 49 | 0 | 0.0 | 2.6 | 0.04 | 1.03 | 1.03 | 94 | 1001.6 |
| 20260508001542 | 49 | 315 | 0.0 | 2.6 | 0.04 | 1.02 | 1.02 | 94 | 1001.5 |
| 20260508000045 | 49 | 0 | 0.0 | 0.9 | 0.05 | 1.01 | 1.01 | 94 | 1001.5 |
| 20260507234549 | 49 | 0 | 0.0 | 1.7 | 0.06 | 1.00 | 1.00 | 94 | 1001.5 |
| 20260507233047 | 50 | 315 | 0.0 | 1.7 | 0.06 | 0.99 | 0.99 | 94 | 1001.4 |
| 20260507231549 | 50 | 315 | 1.7 | 4.3 | 0.06 | 0.97 | 0.97 | 94 | 1001.6 |
| 20260507230042 | 50 | 316 | 1.7 | 5.2 | 0.07 | 0.96 | 0.96 | 94 | 1001.7 |
| 20260507224541 | 50 | 0 | 0.9 | 2.6 | 0.07 | 0.94 | 0.94 | 94 | 1001.5 |
| 20260507223041 | 50 | 67 | 0.9 | 5.2 | 0.08 | 0.92 | 0.92 | 94 | 1001.8 |
| 20260507221543 | 50 | 237 | 1.7 | 7.0 | 0.10 | 0.91 | 0.91 | 94 | 1001.8 |
| 20260507220042 | 50 | 275 | 1.7 | 4.3 | 0.11 | 0.88 | 0.88 | 94 | 1001.9 |
| 20260507214541 | 50 | 256 | 1.7 | 5.2 | 0.11 | 0.86 | 0.86 | 94 | 1002.1 |
| 20260507213046 | 50 | 303 | 0.0 | 4.3 | 0.13 | 0.84 | 0.84 | 94 | 1002.3 |
| 20260507211544 | 50 | 0 | 0.0 | 4.3 | 0.14 | 0.81 | 0.81 | 94 | 1002.2 |
| 20260507210046 | 50 | 0 | 0.0 | 0.0 | 0.16 | 0.77 | 0.77 | 94 | 1001.4 |
| 20260507204548 | 50 | 0 | 0.0 | 1.7 | 0.17 | 0.74 | 0.74 | 94 | 1001.9 |
| 20260507203045 | 50 | 21 | 0.0 | 2.6 | 0.19 | 0.70 | 0.70 | 94 | 1002.3 |
| 20260507201558 | 50 | 0 | 0.0 | 2.6 | 0.20 | 0.66 | 0.66 | 93 | 1002.9 |
| 20260507200045 | 51 | 0 | 0.0 | 2.6 | 0.20 | 0.61 | 0.61 | 93 | 1002.9 |
| 20260507194551 | 51 | 0 | 0.0 | 2.6 | 0.22 | 0.56 | 0.56 | 93 | 1003.8 |
| 20260507193054 | 51 | 8 | 1.7 | 3.5 | 0.22 | 0.51 | 0.51 | 93 | 1004.0 |
| 20260507191548 | 51 | 23 | 0.9 | 2.6 | 0.22 | 0.45 | 0.45 | 93 | 1004.4 |
| 20260507190046 | 52 | 0 | 0.0 | 2.6 | 0.19 | 0.40 | 0.40 | 93 | 1004.5 |
| 20260507184545 | 52 | 180 | 0.9 | 3.5 | 0.16 | 0.34 | 0.34 | 93 | 1004.6 |
| 20260507183044 | 53 | 223 | 0.0 | 7.0 | 0.11 | 0.28 | 0.28 | 93 | 1004.9 |
| 20260507181542 | 53 | 94 | 0.0 | 2.6 | 0.07 | 0.23 | 0.23 | 93 | 1004.7 |
| 20260507180049 | 53 | 350 | 0.9 | 6.1 | 0.04 | 0.19 | 0.19 | 92 | 1004.8 |
| 20260507174557 | 53 | 123 | 0.0 | 2.6 | 0.03 | 0.18 | 0.18 | 92 | 1004.3 |
| 20260507173048 | 53 | 0 | 0.9 | 3.5 | 0.03 | 0.17 | 0.17 | 92 | 1004.5 |
| 20260507171559 | 53 | 30 | 0.9 | 9.6 | 0.01 | 0.15 | 0.15 | 92 | 1005.0 |
| 20260507170047 | 54 | 139 | 0.9 | 7.8 | 0.00 | 0.14 | 0.14 | 91 | 1005.5 |
| 20260507164540 | 54 | 27 | 0.9 | 4.3 | 0.00 | 0.14 | 0.14 | 90 | 1005.8 |
| 20260507163040 | 54 | 111 | 0.0 | 6.1 | 0.00 | 0.14 | 0.14 | 90 | 1006.1 |
| 20260507161545 | 55 | 239 | 2.6 | 11.3 | 0.00 | 0.14 | 0.14 | 90 | 1006.5 |
| 20260507160048 | 55 | 126 | 3.5 | 10.4 | 0.00 | 0.14 | 0.14 | 90 | 1006.7 |
| 20260507154541 | 55 | 0 | 0.9 | 9.6 | 0.00 | 0.14 | 0.14 | 90 | 1007.1 |
| 20260507153040 | 55 | 221 | 3.5 | 10.4 | 0.00 | 0.14 | 0.14 | 91 | 1007.1 |
| 20260507151543 | 55 | 0 | 2.6 | 12.2 | 0.00 | 0.14 | 0.14 | 91 | 1007.6 |
| 20260507150040 | 55 | 147 | 2.6 | 10.4 | 0.00 | 0.14 | 0.14 | 92 | 1007.9 |
| 20260507144610 | 54 | 224 | 0.9 | 7.8 | 0.00 | 0.14 | 0.14 | 92 | 1008.1 |
| 20260507143045 | 55 | 275 | 0.9 | 9.6 | 0.00 | 0.14 | 0.14 | 92 | 1008.6 |
| 20260507141543 | 54 | 312 | 1.7 | 8.7 | 0.00 | 0.14 | 0.14 | 92 | 1009.0 |
| 20260507140040 | 54 | 94 | 4.3 | 10.4 | 0.00 | 0.14 | 0.14 | 93 | 1009.2 |
| 20260507134549 | 55 | 65 | 1.7 | 15.6 | 0.00 | 0.14 | 0.14 | 93 | 1009.2 |
| 20260507133046 | 54 | 58 | 2.6 | 7.8 | 0.00 | 0.14 | 0.14 | 94 | 1009.4 |
| 20260507131544 | 54 | 55 | 2.6 | 11.3 | 0.00 | 0.14 | 0.14 | 94 | 1009.3 |
| 20260507130041 | 55 | 311 | 1.7 | 6.1 | 0.00 | 0.14 | 0.14 | 94 | 1009.9 |
| 20260507124541 | 55 | 122 | 0.9 | 6.1 | 0.00 | 0.14 | 0.14 | 95 | 1009.4 |
| 20260507123040 | 53 | 208 | 0.9 | 7.8 | 0.03 | 0.14 | 0.14 | 94 | 1009.8 |
| 20260507121542 | 53 | 58 | 0.0 | 6.1 | 0.05 | 0.14 | 0.14 | 94 | 1010.1 |
| 20260507120041 | 52 | 0 | 0.0 | 10.4 | 0.06 | 0.14 | 0.14 | 95 | 1010.3 |
| 20260507114541 | 51 | 315 | 1.7 | 3.5 | 0.06 | 0.13 | 0.13 | 94 | 1010.8 |
| 20260507113047 | 51 | 335 | 0.9 | 5.2 | 0.04 | 0.11 | 0.11 | 94 | 1011.2 |
| 20260507111550 | 51 | 65 | 0.0 | 2.6 | 0.02 | 0.08 | 0.08 | 94 | 1011.3 |
| 20260507110046 | 51 | 0 | 0.0 | 2.6 | 0.03 | 0.07 | 0.07 | 94 | 1011.2 |
| 20260507104542 | 51 | 0 | 0.9 | 4.3 | 0.03 | 0.07 | 0.07 | 95 | 1011.3 |
| 20260507103050 | 50 | 0 | 0.0 | 1.7 | 0.02 | 0.06 | 0.06 | 94 | 1011.6 |
| 20260507101550 | 50 | 0 | 0.0 | 2.6 | 0.03 | 0.06 | 0.06 | 94 | 1012.0 |
| 20260507100045 | 50 | 51 | 0.0 | 3.5 | 0.01 | 0.04 | 0.04 | 94 | 1011.8 |
| 20260507094546 | 50 | 312 | 0.0 | 2.6 | 0.00 | 0.03 | 0.03 | 94 | 1012.2 |
| 20260507093045 | 50 | 0 | 0.0 | 2.6 | 0.00 | 0.03 | 0.03 | 94 | 1012.1 |
| 20260507091542 | 50 | 0 | 0.0 | 0.0 | 0.00 | 0.03 | 0.03 | 94 | 1012.5 |
| 20260507090041 | 50 | 0 | 0.0 | 2.6 | 0.00 | 0.03 | 0.03 | 94 | 1012.3 |
| 20260507084546 | 50 | 0 | 0.0 | 2.6 | 0.00 | 0.03 | 0.03 | 94 | 1012.3 |
| 20260507083044 | 50 | 313 | 0.9 | 3.5 | 0.00 | 0.03 | 0.03 | 93 | 1012.2 |
| 20260507081541 | 50 | 0 | 0.0 | 1.7 | 0.00 | 0.02 | 0.02 | 94 | 1012.2 |
| 20260507080046 | 50 | 312 | 0.0 | 2.6 | 0.00 | 0.02 | 0.02 | 94 | 1012.7 |
| 20260507074544 | 50 | 308 | 0.0 | 3.5 | 0.00 | 0.02 | 0.02 | 94 | 1012.8 |
| 20260507073045 | 50 | 0 | 0.0 | 0.0 | 0.00 | 0.02 | 0.02 | 93 | 1013.1 |
| 20260507071547 | 50 | 0 | 0.0 | 2.6 | 0.00 | 0.02 | 0.02 | 93 | 1013.2 |
| 20260507070046 | 50 | 358 | 0.0 | 3.5 | 0.01 | 0.02 | 0.02 | 93 | 1013.4 |
| 20260507064544 | 50 | 0 | 0.9 | 3.5 | 0.02 | 0.02 | 0.02 | 93 | 1013.4 |
| 20260507063047 | 49 | 0 | 0.0 | 2.6 | 0.02 | 0.02 | 0.02 | 92 | 1013.6 |
| 20260507061544 | 49 | 300 | 0.0 | 1.7 | 0.02 | 0.02 | 0.02 | 91 | 1014.0 |
| 20260507060052 | 49 | 0 | 0.0 | 0.0 | 0.00 | 0.00 | 0.00 | 91 | 1014.0 |
| 20260507054548 | 49 | 0 | 0.0 | 0.0 | 0.00 | 0.00 | 0.00 | 91 | 1014.2 |
| 20260507053042 | 49 | 0 | 0.0 | 0.9 | 0.00 | 0.00 | 0.00 | 90 | 1014.6 |
| 20260507051541 | 49 | 0 | 0.0 | 0.9 | 0.00 | 0.00 | 0.00 | 90 | 1014.8 |
| 20260507050050 | 50 | 298 | 0.0 | 2.6 | 0.00 | 0.00 | 0.00 | 90 | 1015.2 |
| 20260507044554 | 50 | 0 | 0.0 | 3.5 | 0.00 | 0.00 | 0.00 | 90 | 1015.5 |
| 20260507043042 | 50 | 0 | 0.9 | 2.6 | 0.00 | 0.00 | 0.00 | 90 | 1015.6 |
| 20260507041541 | 49 | 303 | 0.9 | 4.3 | 0.00 | 0.00 | 0.00 | 90 | 1015.9 |
| 20260507040044 | 49 | 306 | 0.9 | 5.2 | 0.00 | 0.00 | 0.00 | 90 | 1016.1 |
| 20260507034545 | 49 | 296 | 0.9 | 3.5 | 0.00 | 0.00 | 0.00 | 90 | 1016.6 |
| 20260507033044 | 50 | 0 | 1.7 | 4.3 | 0.00 | 0.00 | 0.00 | 89 | 1016.7 |
| 20260507031541 | 50 | 314 | 0.9 | 2.6 | 0.00 | 0.00 | 0.00 | 89 | 1016.8 |
| 20260507030048 | 50 | 314 | 0.9 | 3.5 | 0.00 | 0.00 | 0.00 | 89 | 1016.8 |
| 20260507024544 | 50 | 316 | 0.9 | 4.3 | 0.00 | 0.00 | 0.00 | 89 | 1017.0 |